createdAt,value
2019-03-23T00:00:54.368Z,5.37
2019-03-23T00:03:22.625Z,5.97
2019-03-23T00:05:50.877Z,5.63
2019-03-23T00:08:19.147Z,5.47
2019-03-23T00:10:47.726Z,5.80
2019-03-23T00:13:15.981Z,5.83
2019-03-23T00:15:44.241Z,5.27
2019-03-23T00:18:12.499Z,5.83
2019-03-23T00:20:40.761Z,4.93
2019-03-23T00:23:09.026Z,5.10
2019-03-23T00:25:37.295Z,5.63
2019-03-23T00:28:05.550Z,5.40
2019-03-23T00:30:33.814Z,4.80
2019-03-23T00:33:02.082Z,5.57
2019-03-23T00:35:30.683Z,5.27
2019-03-23T00:37:58.938Z,5.20
2019-03-23T00:40:27.202Z,5.27
2019-03-23T00:42:55.461Z,5.63
2019-03-23T00:45:23.722Z,5.47
2019-03-23T00:47:51.978Z,5.53
2019-03-23T00:50:20.256Z,5.20
2019-03-23T00:52:48.534Z,5.33
2019-03-23T00:55:17.371Z,4.90
2019-03-23T00:57:45.663Z,4.47
2019-03-23T01:00:13.966Z,5.07
2019-03-23T01:02:42.273Z,4.83
2019-03-23T01:05:10.638Z,4.90
2019-03-23T01:07:38.904Z,4.93
2019-03-23T01:10:09.301Z,5.47
2019-03-23T01:12:37.558Z,5.07
2019-03-23T01:15:10.717Z,5.33
2019-03-23T01:17:38.973Z,5.30
2019-03-23T01:20:09.373Z,4.73
2019-03-23T01:22:37.633Z,5.03
2019-03-23T01:25:06.639Z,5.40
2019-03-23T01:27:35.076Z,5.03
2019-03-23T01:30:05.531Z,5.57
2019-03-23T01:32:33.786Z,5.10
2019-03-23T01:35:02.062Z,4.80
2019-03-23T01:37:30.309Z,4.47
2019-03-23T01:39:58.569Z,5.20
2019-03-23T01:42:26.826Z,5.27
2019-03-23T01:44:55.087Z,5.23
2019-03-23T01:47:23.342Z,4.57
2019-03-23T01:49:51.601Z,4.70
2019-03-23T01:52:19.854Z,4.40
2019-03-23T01:54:48.109Z,5.23
2019-03-23T01:57:16.382Z,5.20
2019-03-23T01:59:44.645Z,5.43
2019-03-23T02:02:13.214Z,6.03
2019-03-23T02:04:41.465Z,5.00
2019-03-23T02:07:14.087Z,5.37
2019-03-23T02:09:39.715Z,5.30
2019-03-23T02:12:07.987Z,5.20
2019-03-23T02:14:36.242Z,4.53
2019-03-23T02:17:04.502Z,5.03
2019-03-23T02:19:32.755Z,5.07
2019-03-23T02:22:01.033Z,5.13
2019-03-23T02:24:29.286Z,4.87
2019-03-23T02:26:57.550Z,4.67
2019-03-23T02:29:25.809Z,5.33
2019-03-23T02:31:54.076Z,4.53
2019-03-23T02:34:22.334Z,5.20
2019-03-23T02:36:50.627Z,4.80
2019-03-23T02:39:18.881Z,5.30
2019-03-23T02:41:47.146Z,4.70
2019-03-23T02:44:15.399Z,5.27
2019-03-23T02:46:43.742Z,5.57
2019-03-23T02:49:12.003Z,4.87
2019-03-23T02:51:40.348Z,4.90
2019-03-23T02:54:08.604Z,4.77
2019-03-23T02:56:36.866Z,5.23
2019-03-23T02:59:05.125Z,4.53
2019-03-23T03:01:33.667Z,4.77
2019-03-23T03:04:01.940Z,4.67
2019-03-23T03:06:30.199Z,5.20
2019-03-23T03:08:58.457Z,4.87
2019-03-23T03:11:26.722Z,4.23
2019-03-23T03:13:54.987Z,4.83
2019-03-23T03:16:23.248Z,4.67
2019-03-23T03:18:51.515Z,4.80
2019-03-23T03:21:19.770Z,5.00
2019-03-23T03:23:48.030Z,4.53
2019-03-23T03:26:16.864Z,4.80
2019-03-23T03:28:45.126Z,4.77
2019-03-23T03:31:13.416Z,4.63
2019-03-23T03:33:41.736Z,4.77
2019-03-23T03:36:09.992Z,4.70
2019-03-23T03:38:38.255Z,4.70
2019-03-23T03:41:06.517Z,4.80
2019-03-23T03:43:34.782Z,5.10
2019-03-23T03:46:03.055Z,4.30
2019-03-23T03:48:31.323Z,5.03
2019-03-23T03:50:59.586Z,4.80
2019-03-23T03:53:27.870Z,4.83
2019-03-23T03:55:56.133Z,4.37
2019-03-23T03:58:24.401Z,4.83
2019-03-23T04:00:52.656Z,4.60
2019-03-23T04:03:20.907Z,4.40
2019-03-23T04:05:49.837Z,4.60
2019-03-23T04:08:18.107Z,4.43
2019-03-23T04:10:46.359Z,4.83
2019-03-23T04:13:14.633Z,4.53
2019-03-23T04:15:42.892Z,4.50
2019-03-23T04:18:11.158Z,4.53
2019-03-23T04:20:39.411Z,4.57
2019-03-23T04:23:07.678Z,4.13
2019-03-23T04:25:35.936Z,4.20
2019-03-23T04:28:04.217Z,4.20
2019-03-23T04:30:32.547Z,3.90
2019-03-23T04:33:00.819Z,3.93
2019-03-23T04:35:29.083Z,4.10
2019-03-23T04:37:57.367Z,4.70
2019-03-23T04:40:25.909Z,4.63
2019-03-23T04:42:54.178Z,4.67
2019-03-23T04:45:22.462Z,4.50
2019-03-23T04:47:50.723Z,4.30
2019-03-23T04:50:18.986Z,4.20
2019-03-23T04:52:47.262Z,4.47
2019-03-23T04:55:15.870Z,4.70
2019-03-23T04:57:44.118Z,4.57
2019-03-23T05:00:19.659Z,4.13
2019-03-23T05:02:47.919Z,4.07
2019-03-23T05:05:16.195Z,4.17
2019-03-23T05:07:44.714Z,4.37
2019-03-23T05:10:13.296Z,4.40
2019-03-23T05:12:41.556Z,3.90
2019-03-23T05:15:09.828Z,4.53
2019-03-23T05:17:38.081Z,3.80
2019-03-23T05:20:07.594Z,4.30
2019-03-23T05:22:35.846Z,4.33
2019-03-23T05:25:05.055Z,4.97
2019-03-23T05:27:33.315Z,4.10
2019-03-23T05:30:01.581Z,4.30
2019-03-23T05:32:29.856Z,4.17
2019-03-23T05:34:58.139Z,4.10
2019-03-23T05:37:26.387Z,4.23
2019-03-23T05:39:54.646Z,4.13
2019-03-23T05:42:22.909Z,4.07
2019-03-23T05:44:51.184Z,4.40
2019-03-23T05:47:19.731Z,4.30
2019-03-23T05:49:48.071Z,4.10
2019-03-23T05:52:16.333Z,3.70
2019-03-23T05:54:44.586Z,4.27
2019-03-23T05:57:12.850Z,4.33
2019-03-23T05:59:41.123Z,4.47
2019-03-23T06:02:09.395Z,4.23
2019-03-23T06:04:37.741Z,3.97
2019-03-23T06:07:06.015Z,4.07
2019-03-23T06:09:34.271Z,4.30
2019-03-23T06:12:02.545Z,4.07
2019-03-23T06:14:31.395Z,4.10
2019-03-23T06:16:59.659Z,4.20
2019-03-23T06:19:28.184Z,4.03
2019-03-23T06:21:56.759Z,4.30
2019-03-23T06:24:25.344Z,3.90
2019-03-23T06:26:53.674Z,4.00
2019-03-23T06:29:22.031Z,4.00
2019-03-23T06:31:50.298Z,4.50
2019-03-23T06:34:18.559Z,4.10
2019-03-23T06:36:46.833Z,4.13
2019-03-23T06:39:15.108Z,4.00
2019-03-23T06:41:43.386Z,4.07
2019-03-23T06:44:11.647Z,4.27
2019-03-23T06:46:39.910Z,4.23
2019-03-23T06:49:08.167Z,4.03
2019-03-23T06:51:36.458Z,3.67
2019-03-23T06:54:04.715Z,3.87
2019-03-23T06:56:33.330Z,3.77
2019-03-23T06:59:01.675Z,3.90
2019-03-23T07:01:29.938Z,3.70
2019-03-23T07:03:58.191Z,4.30
2019-03-23T07:06:26.470Z,3.67
2019-03-23T07:08:54.727Z,4.20
2019-03-23T07:11:22.999Z,3.90
2019-03-23T07:13:51.254Z,3.90
2019-03-23T07:16:19.519Z,3.83
2019-03-23T07:18:47.792Z,4.27
2019-03-23T07:21:16.042Z,3.70
2019-03-23T07:23:44.316Z,3.53
2019-03-23T07:26:12.579Z,4.17
2019-03-23T07:28:40.856Z,3.70
2019-03-23T07:31:09.134Z,4.27
2019-03-23T07:33:37.402Z,3.60
2019-03-23T07:36:05.663Z,3.87
2019-03-23T07:38:33.936Z,3.73
2019-03-23T07:41:02.199Z,3.40
2019-03-23T07:43:30.488Z,4.00
2019-03-23T07:45:59.159Z,4.00
2019-03-23T07:48:28.540Z,3.70
2019-03-23T07:50:57.020Z,3.60
2019-03-23T07:53:25.282Z,4.00
2019-03-23T07:55:53.547Z,3.80
2019-03-23T07:58:21.807Z,3.60
2019-03-23T08:00:50.071Z,3.90
2019-03-23T08:03:18.346Z,4.23
2019-03-23T08:05:46.879Z,3.40
2019-03-23T08:08:15.150Z,3.70
2019-03-23T08:10:43.482Z,4.00
2019-03-23T08:13:11.777Z,3.80
2019-03-23T08:15:40.079Z,4.10
2019-03-23T08:18:08.343Z,3.60
2019-03-23T08:20:36.605Z,3.70
2019-03-23T08:23:04.870Z,3.57
2019-03-23T08:25:33.139Z,3.70
2019-03-23T08:28:01.407Z,3.80
2019-03-23T08:30:29.678Z,3.63
2019-03-23T08:32:57.930Z,3.77
2019-03-23T08:35:26.201Z,3.67
2019-03-23T08:37:54.450Z,3.70
2019-03-23T08:40:22.718Z,3.70
2019-03-23T08:42:50.979Z,3.90
2019-03-23T08:45:19.252Z,3.90
2019-03-23T08:47:47.512Z,3.27
2019-03-23T08:50:15.774Z,3.40
2019-03-23T08:52:44.026Z,3.70
2019-03-23T08:55:12.604Z,3.97
2019-03-23T08:57:41.498Z,3.27
2019-03-23T09:00:09.987Z,3.50
2019-03-23T09:02:38.238Z,3.60
2019-03-23T09:05:06.539Z,3.37
2019-03-23T09:07:34.796Z,4.30
2019-03-23T09:10:04.432Z,3.50
2019-03-23T09:12:32.691Z,3.73
2019-03-23T09:15:00.964Z,2.87
2019-03-23T09:17:29.223Z,3.47
2019-03-23T09:19:57.798Z,3.70
2019-03-23T09:22:26.058Z,3.13
2019-03-23T09:24:56.993Z,3.53
2019-03-23T09:27:24.332Z,3.40
2019-03-23T09:29:52.595Z,3.67
2019-03-23T09:32:20.858Z,3.60
2019-03-23T09:34:49.690Z,3.23
2019-03-23T09:37:17.946Z,3.83
2019-03-23T09:39:46.221Z,3.30
2019-03-23T09:42:14.484Z,3.00
2019-03-23T09:44:42.754Z,3.13
2019-03-23T09:47:11.022Z,3.27
2019-03-23T09:49:39.290Z,3.30
2019-03-23T09:52:07.546Z,3.67
2019-03-23T09:54:35.816Z,3.63
2019-03-23T09:57:04.082Z,3.03
2019-03-23T09:59:32.340Z,3.30
2019-03-23T10:02:00.616Z,3.33
2019-03-23T10:04:28.878Z,3.80
2019-03-23T10:06:57.369Z,3.57
2019-03-23T10:09:25.619Z,3.40
2019-03-23T10:11:53.891Z,3.60
2019-03-23T10:14:22.150Z,3.83
2019-03-23T10:16:50.421Z,3.43
2019-03-23T10:19:18.690Z,3.63
2019-03-23T10:21:47.199Z,3.33
2019-03-23T10:24:15.457Z,3.37
2019-03-23T10:26:43.781Z,3.50
2019-03-23T10:29:12.072Z,3.63
2019-03-23T10:31:40.358Z,3.57
2019-03-23T10:34:08.662Z,3.33
2019-03-23T10:36:37.304Z,3.60
2019-03-23T10:39:06.102Z,3.60
2019-03-23T10:41:34.542Z,3.10
2019-03-23T10:44:02.797Z,3.77
2019-03-23T10:46:31.074Z,3.67
2019-03-23T10:48:59.360Z,3.53
2019-03-23T10:51:27.621Z,3.77
2019-03-23T10:53:55.875Z,3.40
2019-03-23T10:56:24.155Z,3.50
2019-03-23T10:58:52.405Z,3.33
2019-03-23T11:01:20.674Z,3.00
2019-03-23T11:03:48.949Z,3.37
2019-03-23T11:06:17.207Z,3.93
2019-03-23T11:08:45.486Z,4.07
2019-03-23T11:11:14.385Z,3.27
2019-03-23T11:13:42.654Z,3.30
2019-03-23T11:16:11.239Z,3.10
2019-03-23T11:18:39.502Z,3.43
2019-03-23T11:21:07.766Z,3.20
2019-03-23T11:23:36.371Z,3.57
2019-03-23T11:26:04.682Z,3.00
2019-03-23T11:28:32.946Z,3.20
2019-03-23T11:31:01.507Z,3.30
2019-03-23T11:33:29.778Z,3.60
2019-03-23T11:35:58.323Z,3.27
2019-03-23T11:38:26.679Z,2.63
2019-03-23T11:40:55.332Z,3.40
2019-03-23T11:43:23.778Z,3.33
2019-03-23T11:45:52.039Z,3.30
2019-03-23T11:48:20.302Z,3.40
2019-03-23T11:50:48.559Z,3.50
2019-03-23T11:53:16.835Z,3.30
2019-03-23T11:55:45.082Z,3.50
2019-03-23T11:58:13.350Z,3.50
2019-03-23T12:00:41.623Z,3.57
2019-03-23T12:03:09.874Z,3.33
2019-03-23T12:05:38.198Z,3.40
2019-03-23T12:08:06.454Z,3.07
2019-03-23T12:10:34.751Z,3.37
2019-03-23T12:13:03.091Z,3.27
2019-03-23T12:15:31.365Z,3.37
2019-03-23T12:17:59.622Z,3.43
2019-03-23T12:20:27.899Z,3.50
2019-03-23T12:22:56.149Z,3.23
2019-03-23T12:25:24.428Z,3.13
2019-03-23T12:27:52.795Z,3.60
2019-03-23T12:30:21.068Z,3.10
2019-03-23T12:32:49.326Z,3.13
2019-03-23T12:35:17.602Z,3.50
2019-03-23T12:37:45.858Z,3.60
2019-03-23T12:40:15.002Z,4.27
2019-03-23T12:42:43.267Z,3.40
2019-03-23T12:45:11.614Z,3.70
2019-03-23T12:47:39.878Z,3.00
2019-03-23T12:50:09.486Z,3.47
2019-03-23T12:52:37.750Z,3.17
2019-03-23T12:55:07.647Z,3.33
2019-03-23T12:57:35.899Z,3.20
2019-03-23T13:00:07.470Z,3.43
2019-03-23T13:02:35.730Z,3.47
2019-03-23T13:05:05.743Z,3.57
2019-03-23T13:07:33.995Z,3.00
2019-03-23T13:10:02.551Z,3.57
2019-03-23T13:12:30.802Z,3.17
2019-03-23T13:14:59.411Z,3.20
2019-03-23T13:17:27.658Z,3.03
2019-03-23T13:19:55.960Z,2.97
2019-03-23T13:22:24.539Z,3.00
2019-03-23T13:24:52.814Z,2.93
2019-03-23T13:27:21.083Z,2.73
2019-03-23T13:29:49.497Z,3.10
2019-03-23T13:32:18.150Z,2.83
2019-03-23T13:34:46.419Z,3.10
2019-03-23T13:37:14.690Z,2.77
2019-03-23T13:39:42.954Z,2.90
2019-03-23T13:42:11.221Z,3.17
2019-03-23T13:44:39.471Z,3.13
2019-03-23T13:47:07.743Z,3.00
2019-03-23T13:49:35.996Z,3.00
2019-03-23T13:52:04.272Z,2.80
2019-03-23T13:54:32.547Z,2.80
2019-03-23T13:57:00.818Z,2.80
2019-03-23T13:59:29.078Z,2.87
2019-03-23T14:01:57.361Z,2.90
2019-03-23T14:04:25.682Z,2.80
2019-03-23T14:06:53.950Z,2.73
2019-03-23T14:09:22.215Z,2.53
2019-03-23T14:11:54.882Z,2.40
2019-03-23T14:14:20.455Z,3.07
2019-03-23T14:16:48.731Z,2.67
2019-03-23T14:19:16.985Z,2.80
2019-03-23T14:21:45.265Z,3.00
2019-03-23T14:24:13.526Z,2.70
2019-03-23T14:26:41.793Z,2.77
2019-03-23T14:29:10.054Z,3.00
2019-03-23T14:31:38.895Z,2.67
2019-03-23T14:34:07.718Z,2.90
2019-03-23T14:36:36.019Z,2.73
2019-03-23T14:39:05.520Z,2.77
2019-03-23T14:41:33.787Z,2.67
2019-03-23T14:44:02.051Z,2.30
2019-03-23T14:46:30.305Z,2.33
2019-03-23T14:49:01.550Z,2.43
2019-03-23T14:51:28.565Z,2.30
2019-03-23T14:53:56.831Z,3.13
2019-03-23T14:56:25.093Z,2.60
2019-03-23T14:58:53.365Z,2.70
2019-03-23T15:01:21.614Z,2.60
2019-03-23T15:03:49.887Z,2.63
2019-03-23T15:06:18.151Z,2.57
2019-03-23T15:08:46.423Z,2.50
2019-03-23T15:11:15.001Z,2.30
2019-03-23T15:13:43.262Z,2.70
2019-03-23T15:16:11.527Z,2.80
2019-03-23T15:18:39.804Z,2.63
2019-03-23T15:21:08.059Z,2.50
2019-03-23T15:23:36.333Z,2.43
2019-03-23T15:26:04.598Z,2.53
2019-03-23T15:28:33.035Z,2.40
2019-03-23T15:31:01.304Z,2.40
2019-03-23T15:33:29.577Z,2.40
2019-03-23T15:35:57.829Z,2.40
2019-03-23T15:38:26.100Z,2.50
2019-03-23T15:40:54.358Z,2.40
2019-03-23T15:43:22.719Z,2.50
2019-03-23T15:45:50.989Z,2.63
2019-03-23T15:48:19.248Z,2.20
2019-03-23T15:50:47.514Z,2.50
2019-03-23T15:53:15.771Z,2.50
2019-03-23T15:55:44.054Z,2.50
2019-03-23T15:58:12.331Z,2.67
2019-03-23T16:00:40.911Z,2.50
2019-03-23T16:03:09.169Z,2.50
2019-03-23T16:05:37.446Z,2.67
2019-03-23T16:08:05.706Z,2.10
2019-03-23T16:10:33.988Z,1.97
2019-03-23T16:13:02.238Z,2.60
2019-03-23T16:15:30.499Z,2.43
2019-03-23T16:18:01.614Z,2.03
2019-03-23T16:20:30.144Z,2.40
2019-03-23T16:22:58.474Z,2.73
2019-03-23T16:25:26.750Z,2.40
2019-03-23T16:27:54.998Z,2.57
2019-03-23T16:30:31.134Z,2.30
2019-03-23T16:32:59.401Z,2.60
2019-03-23T16:35:27.669Z,2.50
2019-03-23T16:37:55.918Z,2.20
2019-03-23T16:40:24.194Z,2.30
2019-03-23T16:42:52.441Z,2.10
2019-03-23T16:45:20.715Z,2.40
2019-03-23T16:47:48.969Z,2.60
2019-03-23T16:50:17.262Z,2.37
2019-03-23T16:52:45.530Z,2.47
2019-03-23T16:55:14.127Z,2.50
2019-03-23T16:57:42.386Z,2.03
2019-03-23T17:00:11.990Z,2.27
2019-03-23T17:02:40.259Z,2.30
2019-03-23T17:05:08.519Z,2.07
2019-03-23T17:07:36.792Z,2.63
2019-03-23T17:10:05.987Z,2.27
2019-03-23T17:12:34.263Z,2.40
2019-03-23T17:15:02.791Z,2.20
2019-03-23T17:17:31.059Z,2.27
2019-03-23T17:19:59.319Z,2.30
2019-03-23T17:22:27.594Z,2.10
2019-03-23T17:24:55.854Z,2.20
2019-03-23T17:27:24.122Z,2.10
2019-03-23T17:29:52.385Z,2.33
2019-03-23T17:32:20.643Z,2.30
2019-03-23T17:34:48.903Z,2.10
2019-03-23T17:37:17.162Z,2.10
2019-03-23T17:39:45.425Z,2.30
2019-03-23T17:42:13.769Z,2.00
2019-03-23T17:44:42.018Z,2.27
2019-03-23T17:47:10.571Z,2.17
2019-03-23T17:49:38.843Z,2.23
2019-03-23T17:52:07.115Z,2.33
2019-03-23T17:54:35.377Z,2.30
2019-03-23T17:57:03.643Z,2.30
2019-03-23T17:59:31.903Z,2.27
2019-03-23T18:02:00.171Z,2.10
2019-03-23T18:04:28.423Z,2.00
2019-03-23T18:06:56.674Z,2.60
2019-03-23T18:09:24.985Z,2.20
2019-03-23T18:11:53.293Z,1.90
2019-03-23T18:14:21.560Z,2.13
2019-03-23T18:16:49.815Z,2.33
2019-03-23T18:19:18.082Z,2.60
2019-03-23T18:21:46.422Z,2.07
2019-03-23T18:24:14.691Z,2.33
2019-03-23T18:26:42.954Z,2.00
2019-03-23T18:29:11.222Z,1.73
2019-03-23T18:31:39.478Z,1.87
2019-03-23T18:34:07.745Z,2.10
2019-03-23T18:36:36.011Z,2.00
2019-03-23T18:39:05.456Z,2.20
2019-03-23T18:41:33.970Z,1.90
2019-03-23T18:44:02.242Z,2.10
2019-03-23T18:46:30.498Z,1.80
2019-03-23T18:48:58.767Z,2.20
2019-03-23T18:51:27.025Z,1.90
2019-03-23T18:53:55.295Z,2.20
2019-03-23T18:56:23.551Z,2.23
2019-03-23T18:58:51.823Z,2.40
2019-03-23T19:01:20.087Z,2.00
2019-03-23T19:03:48.351Z,2.00
2019-03-23T19:06:16.603Z,2.07
2019-03-23T19:08:44.959Z,2.20
2019-03-23T19:11:14.953Z,2.20
2019-03-23T19:13:43.198Z,1.90
2019-03-23T19:16:11.457Z,1.90
2019-03-23T19:18:39.729Z,2.10
2019-03-23T19:21:07.986Z,1.90
2019-03-23T19:23:36.304Z,1.80
2019-03-23T19:26:04.554Z,2.00
2019-03-23T19:28:32.828Z,2.37
2019-03-23T19:31:01.169Z,1.70
2019-03-23T19:33:29.422Z,2.47
2019-03-23T19:35:57.704Z,1.87
2019-03-23T19:38:26.003Z,1.90
2019-03-23T19:40:54.317Z,1.90
2019-03-23T19:43:22.580Z,2.10
2019-03-23T19:45:50.856Z,2.20
2019-03-23T19:48:19.102Z,1.87
2019-03-23T19:50:47.384Z,1.90
2019-03-23T19:53:15.639Z,1.73
2019-03-23T19:55:43.906Z,1.93
2019-03-23T19:58:12.167Z,1.77
2019-03-23T20:00:40.443Z,1.60
2019-03-23T20:03:08.704Z,2.10
2019-03-23T20:05:37.263Z,1.70
2019-03-23T20:08:05.523Z,1.70
2019-03-23T20:10:33.795Z,1.90
2019-03-23T20:13:02.056Z,2.00
2019-03-23T20:15:30.319Z,1.83
2019-03-23T20:17:58.569Z,2.07
2019-03-23T20:20:26.834Z,1.67
2019-03-23T20:22:55.098Z,1.80
2019-03-23T20:25:24.284Z,1.90
2019-03-23T20:27:52.546Z,1.93
2019-03-23T20:30:20.827Z,1.50
2019-03-23T20:32:49.090Z,1.93
2019-03-23T20:35:17.932Z,1.87
2019-03-23T20:37:46.189Z,2.03
2019-03-23T20:40:14.447Z,1.70
2019-03-23T20:42:43.974Z,2.00
2019-03-23T20:45:14.990Z,1.80
2019-03-23T20:47:43.255Z,1.90
2019-03-23T20:50:12.987Z,1.73
2019-03-23T20:52:41.261Z,1.80
2019-03-23T20:55:24.129Z,1.83
2019-03-23T20:57:53.025Z,2.00
2019-03-23T21:00:21.352Z,2.00
2019-03-23T21:02:49.859Z,1.73
2019-03-23T21:05:18.114Z,1.83
2019-03-23T21:07:46.386Z,1.80
2019-03-23T21:10:14.659Z,1.80
2019-03-23T21:12:42.918Z,1.63
2019-03-23T21:15:11.198Z,1.93
2019-03-23T21:17:50.673Z,1.80
2019-03-23T21:20:09.511Z,2.07
2019-03-23T21:22:37.767Z,1.63
2019-03-23T21:25:06.799Z,1.73
2019-03-23T21:27:35.078Z,1.90
2019-03-23T21:30:04.905Z,1.77
2019-03-23T21:32:33.172Z,1.97
2019-03-23T21:35:01.428Z,1.77
2019-03-23T21:37:29.698Z,1.80
2019-03-23T21:39:57.954Z,1.70
2019-03-23T21:42:26.246Z,1.73
2019-03-23T21:44:54.490Z,1.53
2019-03-23T21:47:22.801Z,1.80
2019-03-23T21:49:51.449Z,1.70
2019-03-23T21:52:19.711Z,1.80
2019-03-23T21:54:47.986Z,1.70
2019-03-23T21:57:16.247Z,1.97
2019-03-23T21:59:44.510Z,1.67
2019-03-23T22:02:12.766Z,1.90
2019-03-23T22:04:41.033Z,1.70
2019-03-23T22:07:09.293Z,1.30
2019-03-23T22:09:37.558Z,1.97
2019-03-23T22:12:05.817Z,1.90
2019-03-23T22:14:41.637Z,1.80
2019-03-23T22:17:05.802Z,1.60
2019-03-23T22:19:34.432Z,1.90
2019-03-23T22:22:02.691Z,1.80
2019-03-23T22:24:30.962Z,1.60
2019-03-23T22:26:59.214Z,1.90
2019-03-23T22:29:27.739Z,2.20
2019-03-23T22:31:56.003Z,1.90
2019-03-23T22:34:24.276Z,1.70
2019-03-23T22:36:52.526Z,1.80
2019-03-23T22:39:20.795Z,1.60
2019-03-23T22:41:49.058Z,1.67
2019-03-23T22:44:17.398Z,1.70
2019-03-23T22:46:45.663Z,1.80
2019-03-23T22:49:13.930Z,1.87
2019-03-23T22:51:42.187Z,1.60
2019-03-23T22:54:10.447Z,1.80
2019-03-23T22:56:38.702Z,1.77
2019-03-23T22:59:06.966Z,1.80
2019-03-23T23:01:35.519Z,1.97
2019-03-23T23:04:03.787Z,1.80
2019-03-23T23:06:32.050Z,1.47
2019-03-23T23:09:00.322Z,2.00
2019-03-23T23:11:28.578Z,1.60
2019-03-23T23:13:56.842Z,1.70
2019-03-23T23:16:25.098Z,1.53
2019-03-23T23:18:53.382Z,1.57
2019-03-23T23:21:21.651Z,1.80
2019-03-23T23:23:49.907Z,1.57
2019-03-23T23:26:18.187Z,1.40
2019-03-23T23:28:46.448Z,1.80
2019-03-23T23:31:14.718Z,1.80
2019-03-23T23:33:42.980Z,1.70
2019-03-23T23:36:11.251Z,1.90
2019-03-23T23:38:39.506Z,1.90
2019-03-23T23:41:07.774Z,1.60
2019-03-23T23:43:36.035Z,1.50
2019-03-23T23:46:04.310Z,1.80
2019-03-23T23:48:32.574Z,1.67
2019-03-23T23:51:00.875Z,1.40
2019-03-23T23:53:29.506Z,1.73
2019-03-23T23:55:57.775Z,1.60
2019-03-23T23:58:26.026Z,1.60
